createdAt,value
2022-08-07T00:02:35.609Z,2.10
2022-08-07T00:04:18.959Z,2.00
2022-08-07T00:07:11.895Z,1.98
2022-08-07T00:10:19.111Z,2.35
2022-08-07T00:13:17.572Z,2.20
2022-08-07T00:16:12.121Z,1.98
2022-08-07T00:19:03.620Z,2.10
2022-08-07T00:21:56.729Z,2.05
2022-08-07T00:24:52.117Z,2.10
2022-08-07T00:27:56.498Z,2.20
2022-08-07T00:30:42.850Z,2.10
2022-08-07T00:33:29.742Z,2.45
2022-08-07T00:36:18.642Z,2.40
2022-08-07T00:39:04.587Z,2.00
2022-08-07T00:42:01.827Z,2.00
2022-08-07T00:44:52.500Z,2.15
2022-08-07T00:48:09.394Z,2.00
2022-08-07T00:50:51.520Z,2.00
2022-08-07T00:53:39.101Z,2.50
2022-08-07T00:56:40.160Z,2.15
2022-08-07T00:59:35.405Z,2.20
2022-08-07T01:02:28.576Z,1.95
2022-08-07T01:05:19.122Z,2.10
2022-08-07T01:08:06.124Z,2.17
2022-08-07T01:10:56.384Z,1.92
2022-08-07T01:13:46.742Z,2.25
2022-08-07T01:16:43.416Z,2.03
2022-08-07T01:19:34.364Z,2.55
2022-08-07T01:22:29.428Z,2.33
2022-08-07T01:25:54.184Z,1.88
2022-08-07T01:28:29.637Z,2.15
2022-08-07T01:31:18.093Z,2.25
2022-08-07T01:34:06.374Z,2.20
2022-08-07T01:36:58.390Z,2.22
2022-08-07T01:39:48.293Z,2.20
2022-08-07T01:42:57.653Z,2.13
2022-08-07T01:45:48.112Z,2.08
2022-08-07T01:48:47.570Z,2.10
2022-08-07T01:52:04.071Z,2.22
2022-08-07T01:54:52.632Z,2.38
2022-08-07T01:58:06.337Z,2.47
2022-08-07T02:00:52.052Z,1.95
2022-08-07T02:03:51.641Z,2.45
2022-08-07T02:06:40.059Z,2.33
2022-08-07T02:09:33.931Z,3.10
2022-08-07T02:12:39.322Z,2.53
2022-08-07T02:15:32.107Z,2.63
2022-08-07T02:18:21.051Z,2.13
2022-08-07T02:21:13.740Z,2.72
2022-08-07T02:24:03.451Z,3.15
2022-08-07T02:26:50.559Z,2.55
2022-08-07T02:29:48.808Z,2.40
2022-08-07T02:33:01.056Z,2.08
2022-08-07T02:36:28.599Z,2.20
2022-08-07T02:39:16.000Z,2.13
2022-08-07T02:42:10.362Z,2.40
2022-08-07T02:45:57.707Z,2.35
2022-08-07T02:48:15.522Z,2.95
2022-08-07T02:51:29.090Z,2.20
2022-08-07T02:54:17.706Z,2.60
2022-08-07T02:57:06.676Z,2.97
2022-08-07T02:59:54.955Z,2.80
2022-08-07T03:02:54.043Z,2.45
2022-08-07T03:05:41.835Z,2.40
2022-08-07T03:08:29.260Z,2.65
2022-08-07T03:11:18.208Z,2.28
2022-08-07T03:14:05.960Z,2.90
2022-08-07T03:16:52.357Z,2.78
2022-08-07T03:19:39.647Z,3.22
2022-08-07T03:22:29.670Z,2.50
2022-08-07T03:25:21.108Z,4.90
2022-08-07T03:28:37.516Z,3.00
2022-08-07T03:31:24.598Z,2.78
2022-08-07T03:34:22.515Z,3.03
2022-08-07T03:37:17.332Z,2.97
2022-08-07T03:40:15.760Z,3.60
2022-08-07T03:43:03.484Z,7.05
2022-08-07T03:45:52.860Z,3.42
2022-08-07T03:48:45.420Z,3.55
2022-08-07T03:51:47.314Z,3.10
2022-08-07T03:54:55.223Z,2.80
2022-08-07T03:58:33.428Z,3.58
2022-08-07T04:00:59.694Z,3.22
2022-08-07T04:03:55.032Z,2.90
2022-08-07T04:06:45.203Z,3.35
2022-08-07T04:09:44.776Z,3.00
2022-08-07T04:15:25.327Z,2.83
2022-08-07T04:18:58.421Z,3.10
2022-08-07T04:21:22.383Z,3.63
2022-08-07T04:24:33.898Z,3.28
2022-08-07T04:27:25.773Z,3.00
2022-08-07T04:30:21.477Z,3.22
2022-08-07T04:33:33.655Z,3.42
2022-08-07T04:36:22.821Z,3.03
2022-08-07T04:39:13.302Z,3.10
2022-08-07T04:42:04.528Z,3.40
2022-08-07T04:45:02.927Z,3.47
2022-08-07T04:48:13.732Z,3.67
2022-08-07T04:51:09.300Z,3.90
2022-08-07T04:54:30.118Z,3.45
2022-08-07T04:58:15.729Z,3.50
2022-08-07T05:01:01.042Z,3.50
2022-08-07T05:04:06.468Z,4.22
2022-08-07T05:07:30.408Z,3.63
2022-08-07T05:10:29.203Z,3.75
2022-08-07T05:14:53.107Z,3.40
2022-08-07T05:16:28.239Z,3.40
2022-08-07T05:19:19.479Z,3.30
2022-08-07T05:25:26.323Z,3.65
2022-08-07T05:28:26.688Z,3.45
2022-08-07T05:31:17.344Z,3.65
2022-08-07T05:34:11.086Z,3.67
2022-08-07T05:37:00.343Z,3.30
2022-08-07T05:40:18.594Z,3.90
2022-08-07T05:43:10.563Z,3.83
2022-08-07T05:45:58.677Z,4.03
2022-08-07T05:48:58.626Z,3.75
2022-08-07T05:51:52.125Z,4.20
2022-08-07T05:54:44.308Z,4.28
2022-08-07T05:57:42.339Z,4.53
2022-08-07T06:00:34.167Z,4.00
2022-08-07T06:03:24.398Z,4.43
2022-08-07T06:06:32.823Z,4.15
2022-08-07T06:09:22.702Z,4.35
2022-08-07T06:12:33.072Z,4.40
2022-08-07T06:15:20.480Z,5.18
2022-08-07T06:18:08.592Z,4.95
2022-08-07T06:22:14.759Z,4.72
2022-08-07T06:24:45.570Z,5.43
2022-08-07T06:27:08.552Z,5.05
2022-08-07T06:29:56.855Z,5.22
2022-08-07T06:32:45.307Z,5.07
2022-08-07T06:35:45.628Z,4.78
2022-08-07T06:38:35.487Z,5.63
2022-08-07T06:42:00.995Z,5.70
2022-08-07T06:45:01.470Z,5.28
2022-08-07T06:47:58.445Z,5.82
2022-08-07T06:50:51.170Z,6.50
2022-08-07T06:55:29.249Z,5.07
2022-08-07T06:56:50.583Z,5.45
2022-08-07T07:00:13.437Z,6.25
2022-08-07T07:02:58.184Z,6.55
2022-08-07T07:06:02.652Z,6.80
2022-08-07T07:08:53.467Z,6.03
2022-08-07T07:12:08.622Z,6.63
2022-08-07T07:15:23.830Z,11.15
2022-08-07T07:18:33.095Z,9.93
2022-08-07T07:22:04.123Z,10.60
2022-08-07T07:24:58.449Z,10.05
2022-08-07T07:28:29.649Z,15.30
2022-08-07T07:31:24.108Z,13.73
2022-08-07T07:34:15.558Z,8.23
2022-08-07T07:37:05.398Z,7.55
2022-08-07T07:40:14.606Z,7.65
2022-08-07T07:43:15.440Z,6.93
2022-08-07T07:46:40.088Z,6.63
2022-08-07T07:50:34.011Z,7.80
2022-08-07T07:52:23.635Z,7.22
2022-08-07T07:55:10.949Z,7.78
2022-08-07T07:57:58.753Z,6.65
2022-08-07T08:00:47.795Z,6.20
2022-08-07T08:04:10.199Z,6.65
2022-08-07T08:06:52.280Z,6.65
2022-08-07T08:09:52.533Z,7.18
2022-08-07T08:12:52.657Z,6.45
2022-08-07T08:15:58.672Z,7.43
2022-08-07T08:18:50.464Z,7.00
2022-08-07T08:22:03.425Z,7.13
2022-08-07T08:25:24.829Z,6.50
2022-08-07T08:28:23.983Z,7.07
2022-08-07T08:31:30.230Z,7.13
2022-08-07T08:34:34.011Z,6.93
2022-08-07T08:38:01.578Z,6.95
2022-08-07T08:40:32.113Z,7.20
2022-08-07T08:43:42.811Z,6.93
2022-08-07T08:46:45.017Z,7.72
2022-08-07T08:50:05.147Z,7.30
2022-08-07T08:53:10.771Z,7.35
2022-08-07T08:56:03.490Z,7.15
2022-08-07T08:59:13.781Z,8.25
2022-08-07T09:02:46.205Z,8.13
2022-08-07T09:05:41.682Z,8.15
2022-08-07T09:09:02.086Z,8.90
2022-08-07T09:12:30.305Z,9.02
2022-08-07T09:16:24.118Z,7.93
2022-08-07T09:19:51.837Z,8.25
2022-08-07T09:24:29.106Z,8.10
2022-08-07T09:25:40.320Z,8.00
2022-08-07T09:30:01.165Z,8.57
2022-08-07T09:32:26.558Z,9.32
2022-08-07T09:36:00.856Z,9.88
2022-08-07T09:39:18.008Z,9.27
2022-08-07T09:42:24.865Z,8.70
2022-08-07T09:47:26.312Z,8.45
2022-08-07T09:50:02.527Z,9.27
2022-08-07T09:52:51.777Z,8.25
2022-08-07T09:56:02.625Z,8.45
2022-08-07T09:59:13.996Z,7.60
2022-08-07T10:02:01.548Z,19.15
2022-08-07T10:05:12.473Z,14.20
2022-08-07T10:08:10.729Z,8.77
2022-08-07T10:12:00.076Z,8.27
2022-08-07T10:14:35.585Z,8.05
2022-08-07T10:18:01.086Z,8.52
2022-08-07T10:21:29.712Z,8.65
2022-08-07T10:24:50.132Z,8.13
2022-08-07T10:28:05.486Z,8.40
2022-08-07T10:31:22.263Z,7.82
2022-08-07T10:34:27.177Z,9.48
2022-08-07T10:38:09.697Z,8.48
2022-08-07T10:41:15.433Z,16.48
2022-08-07T10:44:38.370Z,9.25
2022-08-07T10:47:51.455Z,16.98
2022-08-07T10:50:50.222Z,40.88
2022-08-07T10:53:49.959Z,37.65
2022-08-07T10:57:07.476Z,11.27
2022-08-07T11:00:36.997Z,10.07
2022-08-07T11:03:55.212Z,10.20
2022-08-07T11:07:02.814Z,9.52
2022-08-07T11:10:09.159Z,9.23
2022-08-07T11:13:03.016Z,9.25
2022-08-07T11:15:54.499Z,9.27
2022-08-07T11:18:50.983Z,8.50
2022-08-07T11:21:56.654Z,8.88
2022-08-07T11:25:07.593Z,8.20
2022-08-07T11:28:15.547Z,8.23
2022-08-07T11:31:35.167Z,8.15
2022-08-07T11:35:01.552Z,8.70
2022-08-07T11:38:10.516Z,8.82
2022-08-07T11:41:03.362Z,8.13
2022-08-07T11:44:18.615Z,8.80
2022-08-07T11:47:22.069Z,8.73
2022-08-07T11:50:32.896Z,10.35
2022-08-07T11:53:35.594Z,13.57
2022-08-07T11:57:01.436Z,33.13
2022-08-07T12:00:10.138Z,17.42
2022-08-07T12:03:42.076Z,32.20
2022-08-07T12:06:39.604Z,42.85
2022-08-07T12:10:05.842Z,12.18
2022-08-07T12:13:11.592Z,10.45
2022-08-07T12:16:11.253Z,11.07
2022-08-07T12:19:26.309Z,10.68
2022-08-07T12:22:56.211Z,10.43
2022-08-07T12:26:30.890Z,9.90
2022-08-07T12:29:44.926Z,8.50
2022-08-07T12:32:45.974Z,7.03
2022-08-07T12:38:39.151Z,8.30
2022-08-07T12:41:49.224Z,8.52
2022-08-07T12:44:45.979Z,7.18
2022-08-07T12:48:00.751Z,7.60
2022-08-07T12:50:57.149Z,6.80
2022-08-07T12:54:36.805Z,7.00
2022-08-07T12:57:12.543Z,6.53
2022-08-07T13:00:20.954Z,7.07
2022-08-07T13:04:02.105Z,7.00
2022-08-07T13:07:08.081Z,7.15
2022-08-07T13:10:37.735Z,5.80
2022-08-07T13:13:47.179Z,6.40
2022-08-07T13:17:02.435Z,5.78
2022-08-07T13:19:55.866Z,5.82
2022-08-07T13:22:53.576Z,5.88
2022-08-07T13:26:00.889Z,5.90
2022-08-07T13:29:07.950Z,5.68
2022-08-07T13:32:31.136Z,5.40
2022-08-07T13:36:00.184Z,5.72
2022-08-07T13:38:57.258Z,5.32
2022-08-07T13:41:48.817Z,6.10
2022-08-07T13:44:37.385Z,5.63
2022-08-07T13:47:27.239Z,5.25
2022-08-07T13:50:45.060Z,5.25
2022-08-07T13:53:59.364Z,4.68
2022-08-07T13:56:51.978Z,5.22
2022-08-07T13:59:53.132Z,5.28
2022-08-07T14:02:50.844Z,5.00
2022-08-07T14:05:49.292Z,4.97
2022-08-07T14:08:40.826Z,5.30
2022-08-07T14:11:53.556Z,4.70
2022-08-07T14:14:52.523Z,4.95
2022-08-07T14:18:24.213Z,4.88
2022-08-07T14:20:54.333Z,5.30
2022-08-07T14:24:00.673Z,5.30
2022-08-07T14:27:16.078Z,4.57
2022-08-07T14:30:32.689Z,4.78
2022-08-07T14:33:23.278Z,5.22
2022-08-07T14:36:10.121Z,4.65
2022-08-07T14:39:03.436Z,6.60
2022-08-07T14:42:20.013Z,5.30
2022-08-07T14:45:20.820Z,5.07
2022-08-07T14:48:08.394Z,4.50
2022-08-07T14:51:15.738Z,4.45
2022-08-07T14:57:14.443Z,3.97
2022-08-07T15:00:08.594Z,5.22
2022-08-07T15:06:03.690Z,4.03
2022-08-07T15:08:54.543Z,4.60
2022-08-07T15:15:07.317Z,3.70
2022-08-07T15:18:05.500Z,4.65
2022-08-07T15:21:08.312Z,4.55
2022-08-07T15:25:15.718Z,5.15
2022-08-07T15:27:32.427Z,4.53
2022-08-07T15:30:21.615Z,5.22
2022-08-07T15:37:02.543Z,3.33
2022-08-07T15:39:56.959Z,4.72
2022-08-07T15:42:47.593Z,3.95
2022-08-07T15:49:12.036Z,4.50
2022-08-07T15:54:44.491Z,4.03
2022-08-07T15:57:39.673Z,4.22
2022-08-07T16:00:36.806Z,4.50
2022-08-07T16:03:47.004Z,4.30
2022-08-07T16:06:42.667Z,4.95
2022-08-07T16:09:54.591Z,5.35
2022-08-07T16:13:17.969Z,5.30
2022-08-07T16:16:48.493Z,25.25
2022-08-07T16:19:59.223Z,7.70
2022-08-07T16:23:09.840Z,10.63
2022-08-07T16:26:10.496Z,32.22
2022-08-07T16:30:10.125Z,12.35
2022-08-07T16:32:57.263Z,7.22
2022-08-07T16:36:31.170Z,5.80
2022-08-07T16:39:40.615Z,5.40
2022-08-07T16:43:14.089Z,5.20
2022-08-07T16:50:20.185Z,5.68
2022-08-07T16:53:14.929Z,6.10
2022-08-07T16:56:14.112Z,4.70
2022-08-07T16:59:10.950Z,4.95
2022-08-07T17:02:53.004Z,4.60
2022-08-07T17:06:22.449Z,4.65
2022-08-07T17:09:14.292Z,5.00
2022-08-07T17:12:34.292Z,4.88
2022-08-07T17:15:16.059Z,4.72
2022-08-07T17:18:15.951Z,4.75
2022-08-07T17:21:19.104Z,4.75
2022-08-07T17:24:27.855Z,4.82
2022-08-07T17:27:22.156Z,5.38
2022-08-07T17:30:13.969Z,5.93
2022-08-07T17:34:17.969Z,5.45
2022-08-07T17:36:57.476Z,4.80
2022-08-07T17:39:58.626Z,5.00
2022-08-07T17:43:01.324Z,4.90
2022-08-07T17:45:59.317Z,5.63
2022-08-07T17:48:57.434Z,5.10
2022-08-07T17:52:00.472Z,4.40
2022-08-07T17:54:54.460Z,6.22
2022-08-07T17:57:56.665Z,5.05
2022-08-07T18:00:52.758Z,5.95
2022-08-07T18:04:18.764Z,5.07
2022-08-07T18:07:20.280Z,5.05
2022-08-07T18:12:06.794Z,5.85
2022-08-07T18:14:24.205Z,5.20
2022-08-07T18:18:45.958Z,4.70
2022-08-07T18:21:06.591Z,4.20
2022-08-07T18:24:07.055Z,4.78
2022-08-07T18:27:17.374Z,4.60
2022-08-07T18:30:32.836Z,5.00
2022-08-07T18:33:58.367Z,5.50
2022-08-07T18:36:55.558Z,5.28
2022-08-07T18:40:08.359Z,4.65
2022-08-07T18:42:55.190Z,5.85
2022-08-07T18:46:22.042Z,5.00
2022-08-07T18:50:29.843Z,4.50
2022-08-07T18:52:55.140Z,5.00
2022-08-07T18:56:02.534Z,5.78
2022-08-07T19:02:18.161Z,5.70
2022-08-07T19:06:02.167Z,4.40
2022-08-07T19:09:00.348Z,6.32
2022-08-07T19:12:05.681Z,4.95
2022-08-07T19:16:03.331Z,5.45
2022-08-07T19:18:44.944Z,4.97
2022-08-07T19:21:44.223Z,6.00
2022-08-07T19:24:48.086Z,6.68
2022-08-07T19:28:29.376Z,6.33
2022-08-07T19:30:58.578Z,6.70
2022-08-07T19:33:56.593Z,6.20
2022-08-07T19:36:52.077Z,6.05
2022-08-07T19:39:57.251Z,6.03
2022-08-07T19:42:49.701Z,5.85
2022-08-07T19:46:01.153Z,5.68
2022-08-07T19:48:53.637Z,6.40
2022-08-07T19:51:50.748Z,5.97
2022-08-07T19:54:56.541Z,5.25
2022-08-07T19:58:13.391Z,6.10
2022-08-07T20:01:03.590Z,8.55
2022-08-07T20:04:01.503Z,7.50
2022-08-07T20:06:48.735Z,6.10
2022-08-07T20:10:33.819Z,6.32
2022-08-07T20:12:51.799Z,5.93
2022-08-07T20:15:38.191Z,7.63
2022-08-07T20:18:32.634Z,6.78
2022-08-07T20:21:22.919Z,6.35
2022-08-07T20:24:35.246Z,5.68
2022-08-07T20:27:46.429Z,6.10
2022-08-07T20:30:40.179Z,6.50
2022-08-07T20:34:06.131Z,6.07
2022-08-07T20:36:58.300Z,6.40
2022-08-07T20:40:03.913Z,6.80
2022-08-07T20:42:56.648Z,7.15
2022-08-07T20:46:27.637Z,6.68
2022-08-07T20:49:54.498Z,6.07
2022-08-07T20:51:59.081Z,7.10
2022-08-07T20:54:53.448Z,6.65
2022-08-07T20:57:47.548Z,6.57
2022-08-07T21:00:54.028Z,7.03
2022-08-07T21:03:55.593Z,6.57
2022-08-07T21:06:53.676Z,6.38
2022-08-07T21:09:53.018Z,6.78
2022-08-07T21:12:47.498Z,7.10
2022-08-07T21:15:58.682Z,6.57
2022-08-07T21:18:54.576Z,6.75
2022-08-07T21:21:49.224Z,6.40
2022-08-07T21:25:12.008Z,6.53
2022-08-07T21:28:50.081Z,7.03
2022-08-07T21:32:10.849Z,7.03
2022-08-07T21:36:05.241Z,6.60
2022-08-07T21:39:46.469Z,6.75
2022-08-07T21:42:56.319Z,5.90
2022-08-07T21:46:10.301Z,5.85
2022-08-07T21:49:30.874Z,7.53
2022-08-07T21:52:48.830Z,6.60
2022-08-07T21:55:59.746Z,5.88
2022-08-07T21:59:16.406Z,6.65
2022-08-07T22:02:35.205Z,6.07
2022-08-07T22:05:45.655Z,6.63
2022-08-07T22:08:56.303Z,5.95
2022-08-07T22:12:04.761Z,6.75
2022-08-07T22:16:42.806Z,6.95
2022-08-07T22:18:28.976Z,6.78
2022-08-07T22:21:19.209Z,6.72
2022-08-07T22:24:16.534Z,5.90
2022-08-07T22:27:34.089Z,6.25
2022-08-07T22:30:52.064Z,6.63
2022-08-07T22:33:56.493Z,5.88
2022-08-07T22:37:18.352Z,5.82
2022-08-07T22:40:14.667Z,5.07
2022-08-07T22:43:08.317Z,5.60
2022-08-07T22:47:02.621Z,6.13
2022-08-07T22:49:37.845Z,5.35
2022-08-07T22:52:52.687Z,5.30
2022-08-07T22:56:03.386Z,5.63
2022-08-07T22:59:28.012Z,5.20
2022-08-07T23:02:39.081Z,5.13
2022-08-07T23:06:08.794Z,10.02
2022-08-07T23:10:03.397Z,6.18
2022-08-07T23:12:34.562Z,5.20
2022-08-07T23:16:06.592Z,5.53
2022-08-07T23:19:48.230Z,5.57
2022-08-07T23:22:32.643Z,6.65
2022-08-07T23:25:50.698Z,6.15
2022-08-07T23:28:44.303Z,6.07
2022-08-07T23:34:23.956Z,6.10
2022-08-07T23:35:42.377Z,5.45
2022-08-07T23:38:36.700Z,5.90
2022-08-07T23:41:47.442Z,5.90
2022-08-07T23:45:33.250Z,4.95
2022-08-07T23:48:50.336Z,5.57
2022-08-07T23:52:59.791Z,6.35
2022-08-07T23:54:56.846Z,5.95
2022-08-07T23:57:58.627Z,5.55
